Adak, Alaska
Current Conditions -  °F | °C
As of 7:36 PM on Wednesday 26 Nov 2014 (Local Time) from PADK Reporting Station
Overcast Overcast  
Wind Chill: 29°   Ceiling: 2100
Heat Index: 41°   Visibility: 9mi
Dew Point: 32°   Wind: 37mph
Humidity: 70%   Direction: 240°WSW
Pressure: 29.32"   Gusts: 46mph
Location:  51.88°N, 176.66°W
Report Text: PADK 270536Z AUTO 24032G40KT 9SM BKN021 OVC027 05/00 A2932 RMK AO1
Loading
Personal Weather Stations






























Interactive Weather Map New forecast layout! Learn more

10-Day Weather Forecast

Advertisements
Track Severe Weather on mobile